Chattaroy, WA (99003)

4:24 PM PDT on August 24, 2016 (GMT -0700)
Mt. Kit Carson | | Change Station

Elev 2887 ft 47.89 °N, 117.19 °W | Updated 8 seconds ago

Mostly Cloudy
Mostly Cloudy
79.2 °F
Feels Like 78 °F
N
0.0
Wind Variable Wind from East
Gusts 0.0 mph

Today
High -- | Low -- °F
--% Chance of Precip.
Yesterday
High -- | Low -- °F
Precip. -- in
Pressure 30.17 in
Visibility 10.0 miles
Clouds Few 8500 ft
Mostly Cloudy 10000 ft
Heat Index 78 °F
Dew Point 36 °F
Humidity 21%
Rainfall 0.00 in
Snow Depth Not available.
5:57 AM 7:44 PM
Waning Gibbous, 52% visible
METAR KDEW 242253Z AUTO 36010G16KT 10SM FEW085 BKN100 28/02 A3020 RMK AO2 SLP217 T02780022
Pressure 30.17 in
Visibility 10.0 miles
Clouds Few 8500 ft
Mostly Cloudy 10000 ft
Heat Index 78 °F
Dew Point 36 °F
Humidity 21%
Rainfall 0.00 in
Snow Depth Not available.
5:57 AM 7:44 PM
Waning Gibbous, 52% visible
METAR KDEW 242253Z AUTO 36010G16KT 10SM FEW085 BKN100 28/02 A3020 RMK AO2 SLP217 T02780022

10-Day Weather Forecast

Almanac

Astronomy

Aug. 24, 2016 Rise Set
Actual Time
Civil Twilight
Nautical Twilight
Astronomical Twilight
Moon
Length of Visible Light
Length of Day
Tomorrow will be .
, % of the Moon is Illuminated

Today's Extremes

State Highs State Lows

Community

WunderPhotos

Upload Photos

1,934,731 photos uploaded!

WunderBlog® & News

Nearby

Air Quality

  Air Quality AQ Index Pollutant
Not available.

Snow Depth

Station Depth Elevation

Earthquake Activity

City Distance Mag. Time & Date
Minimum magnitude displayed is 2.5.

Coastal Water Temperatures

Place Temperature

Stations

Nearby Weather Stations

Station Location Temp. Windchill Dew Point Humidity Wind Precip. Elev Updated Type
                   

Watches & Warnings

There are currently no watches in effect.